Time;durP1;ratioP1;P1;durP2;ratioP2;P2;SDS_P1;SDS_P2;PMS_P1;PMS_P2;Temp;Humidity;BMP_temperature;BMP_pressure;BME280_temperature;BME280_humidity;BME280_pressure;Samples;Min_cycle;Max_cycle;Signal;HPM_P1;HPM_P2
2023/10/15 00:00:15;;;;;;;11.77;6.25;;;4.70;99.90;;;;;;5073406;28;20063;-78
2023/10/15 00:02:42;;;;;;;7.47;5.07;;;4.70;99.90;;;;;;5073360;28;20025;-78
2023/10/15 00:05:15;;;;;;;14.55;6.28;;;4.70;99.90;;;;;;5054916;28;20033;-78
2023/10/15 00:07:42;;;;;;;10.45;6.20;;;4.70;99.90;;;;;;5073894;28;20031;-78
2023/10/15 00:10:11;;;;;;;17.90;6.57;;;4.70;99.90;;;;;;5073563;28;20033;-78
2023/10/15 00:12:38;;;;;;;8.98;5.68;;;4.60;99.90;;;;;;5074056;28;20048;-77
2023/10/15 00:15:07;;;;;;;8.57;4.63;;;4.60;99.90;;;;;;5073385;28;20024;-78
2023/10/15 00:17:34;;;;;;;13.45;6.20;;;4.60;99.90;;;;;;5073955;28;20491;-78
2023/10/15 00:20:00;;;;;;;7.20;4.55;;;4.60;99.90;;;;;;5073910;28;20032;-78
2023/10/15 00:22:26;;;;;;;11.07;4.88;;;4.60;99.90;;;;;;5073603;28;20391;-78
2023/10/15 00:24:52;;;;;;;12.30;5.82;;;4.60;99.90;;;;;;5072743;28;20032;-78
2023/10/15 00:27:20;;;;;;;14.80;7.28;;;4.60;99.90;;;;;;5072915;28;20532;-78
2023/10/15 00:29:45;;;;;;;16.05;7.25;;;4.60;99.90;;;;;;5055030;28;20410;-78
2023/10/15 00:32:12;;;;;;;17.92;6.57;;;4.60;99.90;;;;;;5054437;28;20024;-78
2023/10/15 00:34:38;;;;;;;16.38;8.18;;;4.60;99.90;;;;;;5072931;28;20028;-78
2023/10/15 00:37:05;;;;;;;10.90;5.93;;;4.60;99.90;;;;;;5072570;28;20112;-78
2023/10/15 00:39:31;;;;;;;16.08;6.05;;;4.70;99.90;;;;;;5072792;28;20032;-78
2023/10/15 00:41:56;;;;;;;13.77;5.70;;;4.60;99.90;;;;;;5072078;28;20032;-79
2023/10/15 00:44:22;;;;;;;18.05;6.28;;;4.60;99.90;;;;;;5054586;28;20024;-78
2023/10/15 00:46:54;;;;;;;17.40;5.72;;;4.70;99.90;;;;;;5072450;28;20470;-81
2023/10/15 00:49:24;;;;;;;14.90;6.40;;;4.60;99.90;;;;;;5072707;28;20052;-78
2023/10/15 00:51:51;;;;;;;18.17;6.30;;;4.60;99.90;;;;;;5071915;28;20036;-81
2023/10/15 00:54:18;;;;;;;13.65;6.10;;;4.70;99.90;;;;;;5033400;28;20094;-78
2023/10/15 00:56:46;;;;;;;22.77;7.20;;;4.70;99.90;;;;;;5052587;28;20064;-79
2023/10/15 01:01:54;;;;;;;8.67;4.70;;;4.60;99.90;;;;;;5051945;28;20036;-79
2023/10/15 01:04:32;;;;;;;8.25;4.68;;;4.60;99.90;;;;;;5052053;28;20025;-79
2023/10/15 01:07:02;;;;;;;6.47;3.70;;;4.60;99.90;;;;;;5051571;28;20061;-78
2023/10/15 01:09:30;;;;;;;11.07;4.10;;;4.60;99.90;;;;;;5034174;28;20463;-78
2023/10/15 01:11:58;;;;;;;9.18;4.38;;;4.50;99.90;;;;;;5051354;28;20405;-79
2023/10/15 01:14:31;;;;;;;13.30;5.32;;;4.50;99.90;;;;;;5052265;28;20058;-78
2023/10/15 01:16:59;;;;;;;8.73;3.95;;;4.60;99.90;;;;;;5051105;28;20325;-78
2023/10/15 01:19:33;;;;;;;11.88;4.28;;;4.50;99.90;;;;;;5051949;28;20032;-77
2023/10/15 01:22:08;;;;;;;7.00;3.90;;;4.50;99.90;;;;;;5050874;28;20033;-77
2023/10/15 01:24:36;;;;;;;10.77;4.22;;;4.50;99.90;;;;;;5051410;28;20025;-78
2023/10/15 01:29:33;;;;;;;9.07;3.80;;;4.40;99.90;;;;;;5051664;28;20120;-78
2023/10/15 01:32:30;;;;;;;7.85;3.72;;;4.40;99.90;;;;;;5050909;28;20477;-78
2023/10/15 01:34:59;;;;;;;10.35;4.32;;;4.40;99.90;;;;;;5051054;28;20428;-78
2023/10/15 01:37:25;;;;;;;9.20;4.10;;;4.40;99.90;;;;;;5051378;28;20094;-78
2023/10/15 01:40:24;;;;;;;6.15;3.80;;;4.40;99.90;;;;;;5033491;28;20029;-81
2023/10/15 01:42:53;;;;;;;8.35;3.90;;;4.30;99.90;;;;;;5051238;28;20391;-77
2023/10/15 01:45:30;;;;;;;10.18;3.95;;;4.30;99.90;;;;;;5051267;28;20082;-78
2023/10/15 01:48:05;;;;;;;14.98;4.43;;;4.30;99.90;;;;;;5050649;28;20435;-79
2023/10/15 01:50:41;;;;;;;10.27;4.53;;;4.30;99.90;;;;;;5051123;28;20037;-78
2023/10/15 01:53:07;;;;;;;9.38;3.85;;;4.20;99.90;;;;;;5060529;28;20121;-78
2023/10/15 01:55:35;;;;;;;13.80;4.07;;;4.20;99.90;;;;;;5071182;28;20024;-77
2023/10/15 01:58:05;;;;;;;7.47;3.85;;;4.20;99.90;;;;;;5070377;28;20515;-77
2023/10/15 02:03:04;;;;;;;9.65;4.55;;;4.20;99.90;;;;;;5070275;28;20028;-79
2023/10/15 02:05:41;;;;;;;10.10;4.00;;;4.20;99.90;;;;;;5070412;28;20025;-79
2023/10/15 02:08:23;;;;;;;9.63;4.20;;;4.10;99.90;;;;;;5070257;28;20533;-78
2023/10/15 02:10:49;;;;;;;7.75;3.40;;;4.10;99.90;;;;;;5070701;28;20029;-78
2023/10/15 02:13:16;;;;;;;7.28;3.25;;;4.10;99.90;;;;;;5070190;28;20749;-78
2023/10/15 02:15:42;;;;;;;9.40;3.85;;;4.10;99.90;;;;;;5036034;28;20388;-78
2023/10/15 02:18:31;;;;;;;12.32;4.13;;;4.20;99.90;;;;;;5069863;28;20210;-78
2023/10/15 02:23:22;;;;;;;8.50;3.42;;;4.20;99.90;;;;;;5070448;28;20129;-79
2023/10/15 02:25:58;;;;;;;7.82;3.70;;;4.10;99.90;;;;;;5070604;28;20032;-79
2023/10/15 02:28:27;;;;;;;7.80;3.53;;;4.10;99.90;;;;;;5070383;28;20048;-79
2023/10/15 02:31:19;;;;;;;11.38;3.58;;;4.10;99.90;;;;;;5070492;28;20107;-78
2023/10/15 02:33:45;;;;;;;6.32;3.30;;;4.10;99.90;;;;;;5069962;28;20043;-78
2023/10/15 02:36:15;;;;;;;6.18;3.63;;;4.00;99.90;;;;;;5069841;28;20021;-78
2023/10/15 02:38:52;;;;;;;10.88;5.22;;;4.10;99.90;;;;;;5070029;28;20051;-78
2023/10/15 02:41:18;;;;;;;8.85;4.30;;;4.00;99.90;;;;;;5069495;28;20044;-78
2023/10/15 02:43:53;;;;;;;10.80;4.47;;;4.00;99.90;;;;;;5070130;28;20096;-78
2023/10/15 02:46:22;;;;;;;8.63;4.38;;;3.90;99.90;;;;;;5069695;28;20024;-78
2023/10/15 02:48:54;;;;;;;10.00;4.05;;;3.90;99.90;;;;;;5070010;28;20059;-78
2023/10/15 02:51:23;;;;;;;11.68;4.18;;;3.80;99.90;;;;;;5069889;28;20467;-78
2023/10/15 02:53:53;;;;;;;5.90;3.58;;;3.80;99.90;;;;;;5069744;28;20056;-77
2023/10/15 02:56:22;;;;;;;8.80;3.67;;;3.80;99.90;;;;;;5069931;28;20020;-77
2023/10/15 02:58:50;;;;;;;11.02;4.00;;;3.80;99.90;;;;;;5070285;28;20118;-77
2023/10/15 03:01:23;;;;;;;7.80;3.78;;;3.80;99.90;;;;;;5069674;28;20389;-77
2023/10/15 03:03:52;;;;;;;7.63;3.58;;;3.70;99.90;;;;;;5070536;28;20040;-77
2023/10/15 03:06:24;;;;;;;8.40;4.18;;;3.70;99.90;;;;;;5051613;28;20104;-77
2023/10/15 03:08:51;;;;;;;11.32;3.88;;;3.70;99.90;;;;;;5070377;28;20094;-79
2023/10/15 03:11:20;;;;;;;10.57;3.85;;;3.70;99.90;;;;;;5069587;28;20148;-79
2023/10/15 03:14:06;;;;;;;10.27;4.47;;;3.70;99.90;;;;;;5070224;28;20491;-79
2023/10/15 03:16:35;;;;;;;10.05;3.67;;;3.70;99.90;;;;;;5070803;28;20035;-79
2023/10/15 03:19:17;;;;;;;10.02;3.38;;;3.70;99.90;;;;;;5073523;28;20028;-79
2023/10/15 03:21:43;;;;;;;8.25;3.70;;;3.70;99.90;;;;;;5073658;28;20403;-79
2023/10/15 03:24:09;;;;;;;9.38;4.00;;;3.70;99.90;;;;;;5073094;28;20043;-77
2023/10/15 03:26:36;;;;;;;8.10;3.63;;;3.70;99.90;;;;;;5073324;28;20036;-77
2023/10/15 03:29:09;;;;;;;6.72;3.20;;;3.70;99.90;;;;;;5072952;28;20510;-80
2023/10/15 03:31:37;;;;;;;9.68;3.42;;;3.60;99.90;;;;;;5073810;28;20367;-77
2023/10/15 03:39:24;;;;;;;8.90;3.53;;;3.60;99.90;;;;;;5073172;28;20431;-77
2023/10/15 03:41:53;;;;;;;7.28;2.92;;;3.60;99.90;;;;;;5073281;28;20039;-77
2023/10/15 03:44:27;;;;;;;8.32;3.30;;;3.50;99.90;;;;;;5072873;28;20098;-78
2023/10/15 03:47:08;;;;;;;6.75;3.40;;;3.50;99.90;;;;;;5073586;28;20021;-77
2023/10/15 03:49:35;;;;;;;6.05;3.38;;;3.50;99.90;;;;;;5073523;28;20050;-78
2023/10/15 03:52:07;;;;;;;9.50;3.63;;;3.50;99.90;;;;;;5072745;28;20037;-81
2023/10/15 03:54:33;;;;;;;7.75;3.40;;;3.50;99.90;;;;;;5073604;28;20166;-79
2023/10/15 03:57:01;;;;;;;6.25;3.10;;;3.40;99.90;;;;;;5073304;28;20032;-81
2023/10/15 03:59:28;;;;;;;11.05;3.38;;;3.40;99.90;;;;;;5073626;28;20415;-79
2023/10/15 04:01:56;;;;;;;8.38;3.33;;;3.40;99.90;;;;;;5073569;28;20032;-79
2023/10/15 04:04:22;;;;;;;13.25;3.58;;;3.50;99.90;;;;;;5072551;28;20483;-80
2023/10/15 04:06:53;;;;;;;9.27;3.05;;;3.50;99.90;;;;;;5073412;28;20035;-79
2023/10/15 04:09:23;;;;;;;6.95;2.90;;;3.50;99.90;;;;;;5072646;28;20090;-78
2023/10/15 04:11:49;;;;;;;6.07;3.03;;;3.40;99.90;;;;;;5073250;28;20020;-78
2023/10/15 04:14:32;;;;;;;4.65;3.17;;;3.40;99.90;;;;;;5072334;28;20028;-78
2023/10/15 04:16:58;;;;;;;;;;;3.40;99.90;;;;;;5073620;28;20037;-78
2023/10/15 04:19:29;;;;;;;4.50;2.40;;;3.40;99.90;;;;;;5072474;28;20275;-78
2023/10/15 04:22:14;;;;;;;11.98;3.83;;;3.40;99.90;;;;;;5073383;28;20036;-78
2023/10/15 04:24:52;;;;;;;8.02;3.45;;;3.50;99.90;;;;;;5073392;28;20104;-78
2023/10/15 04:27:22;;;;;;;7.65;3.10;;;3.50;99.90;;;;;;5054230;28;20021;-77
2023/10/15 04:29:54;;;;;;;10.30;2.90;;;3.50;99.90;;;;;;5073226;28;20048;-77
2023/10/15 04:33:07;;;;;;;5.63;2.97;;;3.50;99.90;;;;;;5072621;28;20103;-77
2023/10/15 04:35:11;;;;;;;6.90;2.63;;;3.50;99.90;;;;;;5058543;28;20747;-78
2023/10/15 04:37:38;;;;;;;5.72;3.10;;;3.50;99.90;;;;;;5072760;28;20056;-78
2023/10/15 04:40:05;;;;;;;6.43;3.10;;;3.40;99.90;;;;;;5072368;28;20090;-81
2023/10/15 04:42:40;;;;;;;8.05;3.10;;;3.50;99.90;;;;;;5072657;28;20037;-78
2023/10/15 04:45:20;;;;;;;9.02;2.95;;;3.40;99.90;;;;;;5072195;28;20032;-78
2023/10/15 04:47:51;;;;;;;5.28;2.50;;;3.40;99.90;;;;;;5072427;28;20031;-77
2023/10/15 04:50:17;;;;;;;6.93;3.03;;;3.40;99.90;;;;;;5071638;28;20033;-78
2023/10/15 04:52:43;;;;;;;8.93;3.83;;;3.40;99.90;;;;;;5072336;28;20102;-77
2023/10/15 04:55:13;;;;;;;8.23;2.88;;;3.40;99.90;;;;;;5071813;28;20028;-78
2023/10/15 04:57:39;;;;;;;6.85;2.67;;;3.40;99.90;;;;;;5072284;28;20065;-77
2023/10/15 05:00:07;;;;;;;9.88;2.85;;;3.40;99.90;;;;;;5071684;28;20076;-80
2023/10/15 05:02:36;;;;;;;6.78;2.65;;;3.40;99.90;;;;;;5054123;28;20090;-77
2023/10/15 05:05:05;;;;;;;7.50;3.08;;;3.30;99.90;;;;;;5072235;28;20031;-77
2023/10/15 05:07:32;;;;;;;6.40;3.05;;;3.30;99.90;;;;;;5053843;28;20101;-77
2023/10/15 05:09:59;;;;;;;10.38;3.75;;;3.30;99.90;;;;;;5071821;28;20037;-78
2023/10/15 05:12:25;;;;;;;8.63;3.72;;;3.20;99.90;;;;;;5071358;28;20497;-78
2023/10/15 05:14:51;;;;;;;6.43;2.97;;;3.20;99.90;;;;;;5071745;28;20025;-79
2023/10/15 05:17:17;;;;;;;6.30;3.35;;;3.20;99.90;;;;;;5071212;28;20028;-77
2023/10/15 05:19:43;;;;;;;7.15;3.53;;;3.20;99.90;;;;;;5071605;28;20399;-78
2023/10/15 05:22:09;;;;;;;7.20;3.83;;;3.20;99.90;;;;;;5070849;28;20039;-77
2023/10/15 05:24:36;;;;;;;8.02;3.38;;;3.20;99.90;;;;;;5071931;28;20033;-77
2023/10/15 05:27:02;;;;;;;11.10;3.78;;;3.10;99.90;;;;;;5071680;28;20466;-76
2023/10/15 05:29:28;;;;;;;7.57;3.53;;;3.10;99.90;;;;;;5071035;28;20101;-78
2023/10/15 05:31:54;;;;;;;10.90;3.20;;;3.00;99.90;;;;;;5071569;28;20032;-78
2023/10/15 05:34:20;;;;;;;8.00;3.55;;;3.00;99.90;;;;;;5071046;28;20025;-79
2023/10/15 05:36:46;;;;;;;7.22;3.20;;;3.00;99.90;;;;;;5071237;28;20028;-78
2023/10/15 05:39:15;;;;;;;8.80;4.00;;;3.00;99.90;;;;;;5070083;28;20036;-77
2023/10/15 05:41:42;;;;;;;6.38;3.33;;;2.90;99.90;;;;;;5052821;28;20090;-77
2023/10/15 05:44:08;;;;;;;8.35;3.30;;;2.90;99.90;;;;;;5070673;28;20036;-80
2023/10/15 05:46:34;;;;;;;6.07;3.65;;;2.90;99.90;;;;;;5071024;28;20028;-78
2023/10/15 05:48:59;;;;;;;7.50;3.60;;;2.90;99.90;;;;;;5071026;28;20086;-78
2023/10/15 05:51:26;;;;;;;7.70;4.18;;;2.90;99.90;;;;;;5070385;28;20056;-78
2023/10/15 05:53:52;;;;;;;6.97;3.92;;;2.90;99.90;;;;;;5070993;28;20055;-77
2023/10/15 05:56:18;;;;;;;8.32;4.40;;;2.80;99.90;;;;;;5070642;28;20025;-78
2023/10/15 05:58:44;;;;;;;8.43;4.20;;;2.80;99.90;;;;;;5071055;28;20028;-78
2023/10/15 06:01:10;;;;;;;11.85;4.40;;;2.80;99.90;;;;;;5070259;28;20070;-80
2023/10/15 06:03:37;;;;;;;11.52;3.97;;;2.80;99.90;;;;;;5070690;28;20029;-78
2023/10/15 06:06:05;;;;;;;8.95;4.57;;;2.80;99.90;;;;;;5070466;28;20111;-77
2023/10/15 06:08:30;;;;;;;7.80;3.92;;;2.70;99.90;;;;;;5052212;28;20043;-78
2023/10/15 06:10:57;;;;;;;9.05;4.38;;;2.70;99.90;;;;;;5070766;28;20028;-78
2023/10/15 06:13:23;;;;;;;7.35;4.25;;;2.70;99.90;;;;;;5070237;28;20431;-78
2023/10/15 06:15:50;;;;;;;5.85;3.88;;;2.60;99.90;;;;;;5070406;28;20028;-78
2023/10/15 06:18:16;;;;;;;7.50;4.30;;;2.70;99.90;;;;;;5069796;28;20468;-78
2023/10/15 06:20:42;;;;;;;7.82;4.10;;;2.60;99.90;;;;;;5070402;28;20073;-78
2023/10/15 06:23:13;;;;;;;9.65;4.15;;;2.60;99.90;;;;;;5070193;28;20048;-77
2023/10/15 06:25:39;;;;;;;6.68;3.90;;;2.70;99.90;;;;;;5070531;28;20463;-77
2023/10/15 06:28:05;;;;;;;9.93;4.25;;;2.70;99.90;;;;;;5070248;28;20033;-79
2023/10/15 06:30:31;;;;;;;7.07;3.97;;;2.70;99.90;;;;;;5070003;28;20031;-76
2023/10/15 06:32:57;;;;;;;10.32;4.95;;;2.70;99.90;;;;;;5070562;28;20025;-78
2023/10/15 06:35:25;;;;;;;9.40;4.55;;;2.60;99.90;;;;;;5070072;28;20028;-77
2023/10/15 06:37:57;;;;;;;6.97;4.18;;;2.60;99.90;;;;;;5052499;28;20029;-76
2023/10/15 06:40:27;;;;;;;11.15;4.68;;;2.60;99.90;;;;;;5052156;28;20104;-77
2023/10/15 06:42:53;;;;;;;11.88;4.95;;;2.60;99.90;;;;;;5069858;28;20552;-78
2023/10/15 06:45:19;;;;;;;9.68;4.70;;;2.60;99.90;;;;;;5070164;28;20028;-78
2023/10/15 06:47:47;;;;;;;8.85;4.15;;;2.60;99.90;;;;;;5069928;28;20033;-77
2023/10/15 06:50:14;;;;;;;10.20;4.60;;;2.60;99.90;;;;;;5070041;28;20031;-80
2023/10/15 06:52:42;;;;;;;8.13;4.00;;;2.70;99.90;;;;;;5074007;28;20068;-78
2023/10/15 06:55:10;;;;;;;9.80;4.47;;;2.70;99.90;;;;;;5074188;28;20082;-78
2023/10/15 06:57:39;;;;;;;9.30;4.63;;;2.70;99.90;;;;;;5074488;28;20078;-78
2023/10/15 07:00:10;;;;;;;10.15;4.78;;;2.70;99.90;;;;;;5074171;28;20060;-78
2023/10/15 07:02:36;;;;;;;10.38;4.05;;;2.70;99.90;;;;;;5073657;28;20492;-77
2023/10/15 07:05:05;;;;;;;8.73;4.38;;;2.70;99.90;;;;;;5074212;28;20025;-77
2023/10/15 07:07:33;;;;;;;7.97;4.57;;;2.70;99.90;;;;;;5073203;28;20422;-78
2023/10/15 07:10:05;;;;;;;8.35;4.20;;;2.70;99.90;;;;;;5074000;28;20081;-78
2023/10/15 07:12:32;;;;;;;12.48;4.68;;;2.60;99.90;;;;;;5073288;28;20954;-78
2023/10/15 07:14:58;;;;;;;11.00;5.40;;;2.60;99.90;;;;;;5073445;28;20372;-78
2023/10/15 07:17:24;;;;;;;10.90;4.68;;;2.60;99.90;;;;;;5072941;28;20025;-77
2023/10/15 07:19:50;;;;;;;13.30;5.18;;;2.70;99.90;;;;;;5073361;28;20025;-77
2023/10/15 07:22:16;;;;;;;11.38;5.22;;;2.70;99.90;;;;;;5074021;28;20182;-78
2023/10/15 07:24:41;;;;;;;9.20;5.35;;;2.80;99.90;;;;;;5073645;28;20033;-78
2023/10/15 07:27:07;;;;;;;9.88;4.93;;;2.90;99.90;;;;;;5073324;28;20177;-78
2023/10/15 07:29:33;;;;;;;10.75;5.32;;;3.00;99.90;;;;;;5073195;28;20467;-78
2023/10/15 07:31:59;;;;;;;12.35;5.55;;;3.00;99.90;;;;;;5073584;28;20111;-77
2023/10/15 07:34:26;;;;;;;9.00;5.63;;;3.10;99.90;;;;;;5073166;28;20124;-78
2023/10/15 07:36:55;;;;;;;11.52;5.00;;;3.20;99.90;;;;;;5073637;28;20056;-78
2023/10/15 07:39:25;;;;;;;7.80;4.72;;;3.30;99.90;;;;;;5072451;28;20025;-77
2023/10/15 07:41:51;;;;;;;11.07;4.93;;;3.40;99.90;;;;;;5073203;28;20032;-78
2023/10/15 07:44:18;;;;;;;10.07;4.80;;;3.60;99.90;;;;;;5072556;28;20028;-78
2023/10/15 07:46:43;;;;;;;7.03;4.50;;;3.70;99.90;;;;;;5055350;28;20032;-77
2023/10/15 07:49:12;;;;;;;7.70;4.47;;;3.70;99.90;;;;;;5073130;28;20089;-78
2023/10/15 07:51:38;;;;;;;9.07;4.80;;;3.80;99.90;;;;;;5073359;28;20487;-78
2023/10/15 07:54:05;;;;;;;10.77;4.70;;;4.00;99.90;;;;;;5073397;28;20044;-78
2023/10/15 07:56:34;;;;;;;8.02;4.30;;;4.10;99.90;;;;;;5073291;28;20095;-79
2023/10/15 07:59:04;;;;;;;8.48;4.45;;;4.20;99.90;;;;;;5080469;28;20032;-76
2023/10/15 08:01:30;;;;;;;10.10;4.60;;;4.40;99.90;;;;;;5054940;28;20040;-78
2023/10/15 08:03:59;;;;;;;7.88;4.75;;;4.50;99.90;;;;;;5072686;28;20028;-78
2023/10/15 08:06:27;;;;;;;10.50;4.97;;;4.60;99.90;;;;;;5072715;28;20024;-78
2023/10/15 08:08:53;;;;;;;9.77;4.75;;;4.60;99.90;;;;;;5073158;28;20028;-79
2023/10/15 08:11:19;;;;;;;8.25;4.20;;;4.70;99.90;;;;;;5072427;28;20020;-79
2023/10/15 08:13:44;;;;;;;10.55;4.35;;;4.80;99.90;;;;;;5072954;28;20466;-79
2023/10/15 08:16:10;;;;;;;6.40;4.18;;;4.90;99.90;;;;;;5073137;28;20460;-78
2023/10/15 08:18:36;;;;;;;8.10;4.05;;;5.00;99.90;;;;;;5072300;28;20032;-78
2023/10/15 08:21:02;;;;;;;6.45;3.83;;;5.10;99.90;;;;;;5073220;28;20040;-78
2023/10/15 08:23:28;;;;;;;8.45;4.53;;;5.20;99.90;;;;;;5072713;28;20036;-77
2023/10/15 08:25:54;;;;;;;9.75;3.67;;;5.30;99.90;;;;;;5073232;28;20027;-77
2023/10/15 08:28:20;;;;;;;8.30;4.00;;;5.30;99.90;;;;;;5072757;28;20028;-79
2023/10/15 08:30:46;;;;;;;10.20;4.05;;;5.40;99.90;;;;;;5073399;28;20039;-79
2023/10/15 08:33:12;;;;;;;7.60;3.78;;;5.50;99.90;;;;;;5073657;28;20059;-79
2023/10/15 08:35:38;;;;;;;6.13;3.72;;;5.50;99.90;;;;;;5072966;28;20102;-78
2023/10/15 08:38:07;;;;;;;10.40;4.25;;;5.60;99.90;;;;;;5056276;28;20021;-79
2023/10/15 08:40:39;;;;;;;9.07;3.35;;;5.70;99.90;;;;;;5073588;28;20048;-78
2023/10/15 08:43:24;;;;;;;8.73;3.97;;;5.80;99.90;;;;;;5074881;28;20055;-79
2023/10/15 08:45:53;;;;;;;5.57;3.15;;;5.90;99.90;;;;;;5072853;28;20024;-77
2023/10/15 08:48:19;;;;;;;5.65;3.33;;;6.00;99.90;;;;;;5072559;28;20055;-81
2023/10/15 08:50:46;;;;;;;6.68;3.40;;;6.00;99.90;;;;;;5072565;28;20031;-79
2023/10/15 08:53:16;;;;;;;7.45;3.05;;;6.10;99.90;;;;;;5055063;28;20053;-77
2023/10/15 08:55:42;;;;;;;8.60;3.88;;;6.20;99.90;;;;;;5072769;28;20150;-77
2023/10/15 08:58:10;;;;;;;8.85;3.05;;;6.30;99.90;;;;;;5072407;28;20070;-77
2023/10/15 09:00:39;;;;;;;7.22;2.90;;;6.30;99.90;;;;;;5073042;28;20107;-79
2023/10/15 09:03:04;;;;;;;6.97;3.33;;;6.30;99.90;;;;;;5072542;28;20144;-79
2023/10/15 09:05:40;;;;;;;7.25;3.00;;;6.40;99.90;;;;;;5073176;28;20029;-78
2023/10/15 09:08:07;;;;;;;7.95;2.58;;;6.40;99.90;;;;;;5072556;28;20028;-79
2023/10/15 09:10:40;;;;;;;5.78;2.72;;;6.40;99.90;;;;;;5071874;28;20123;-79
2023/10/15 09:13:14;;;;;;;5.40;2.53;;;6.50;99.90;;;;;;5071577;28;20048;-81
2023/10/15 09:15:43;;;;;;;4.70;2.60;;;6.50;99.90;;;;;;5070431;28;20082;-78
2023/10/15 09:18:11;;;;;;;5.50;2.83;;;6.60;99.90;;;;;;5072970;28;20447;-80
2023/10/15 09:20:42;;;;;;;5.82;2.53;;;6.70;99.90;;;;;;5053709;28;20036;-77
2023/10/15 09:23:09;;;;;;;5.40;2.40;;;6.80;99.90;;;;;;5071830;28;20048;-79
2023/10/15 09:25:36;;;;;;;6.97;2.72;;;6.90;99.90;;;;;;5071959;28;20028;-77
2023/10/15 09:28:03;;;;;;;5.30;2.45;;;6.80;99.90;;;;;;5071824;28;20032;-77
2023/10/15 09:30:30;;;;;;;6.95;2.38;;;6.80;99.90;;;;;;5070788;28;20112;-77
2023/10/15 09:32:57;;;;;;;7.70;3.30;;;6.90;99.90;;;;;;5071407;28;20111;-77
2023/10/15 09:35:23;;;;;;;7.93;2.55;;;6.90;99.90;;;;;;5070968;28;20059;-79
2023/10/15 09:37:49;;;;;;;7.93;2.30;;;6.90;99.90;;;;;;5054318;28;20024;-77
2023/10/15 09:40:23;;;;;;;6.65;2.40;;;7.00;99.90;;;;;;5072115;28;20028;-77
2023/10/15 09:42:55;;;;;;;6.00;2.30;;;7.00;99.90;;;;;;5071931;28;20033;-76
2023/10/15 09:45:25;;;;;;;8.45;3.13;;;7.00;99.90;;;;;;5072019;28;20067;-76
2023/10/15 09:47:52;;;;;;;6.38;2.58;;;7.00;99.90;;;;;;5071383;28;20035;-77
2023/10/15 09:50:24;;;;;;;10.68;2.55;;;7.10;99.90;;;;;;5072157;28;20050;-77
2023/10/15 09:53:01;;;;;;;4.00;2.13;;;7.10;99.90;;;;;;5071735;28;20132;-76
2023/10/15 09:55:33;;;;;;;4.53;2.15;;;7.10;99.90;;;;;;5070903;28;20456;-77
2023/10/15 09:58:08;;;;;;;8.43;2.58;;;7.20;99.90;;;;;;5071479;28;20047;-76
2023/10/15 10:01:08;;;;;;;5.22;2.40;;;7.20;99.90;;;;;;5070519;28;20027;-76
2023/10/15 10:03:40;;;;;;;5.82;2.25;;;7.30;99.90;;;;;;5062132;28;20360;-75
2023/10/15 10:06:39;;;;;;;3.58;2.50;;;7.30;99.90;;;;;;5071228;28;20432;-75
2023/10/15 10:09:36;;;;;;;3.75;2.10;;;7.40;99.90;;;;;;5071013;28;20479;-76
2023/10/15 10:12:26;;;;;;;7.25;2.50;;;7.40;99.90;;;;;;5071250;28;20032;-76
2023/10/15 10:15:08;;;;;;;4.47;2.25;;;7.40;99.90;;;;;;5071807;28;20095;-76
2023/10/15 10:17:36;;;;;;;7.33;2.30;;;7.50;99.90;;;;;;5070942;28;20029;-77
2023/10/15 10:20:11;;;;;;;5.35;1.98;;;7.60;99.90;;;;;;5071441;28;20359;-78
2023/10/15 10:22:39;;;;;;;5.50;2.05;;;7.60;99.90;;;;;;5071132;28;20032;-77
2023/10/15 10:25:06;;;;;;;4.13;2.10;;;7.60;99.90;;;;;;5071502;28;20120;-76
2023/10/15 10:27:42;;;;;;;6.93;2.50;;;7.60;99.90;;;;;;5070586;28;20384;-76
2023/10/15 10:30:28;;;;;;;4.70;2.00;;;7.70;99.90;;;;;;5071035;28;20056;-76
2023/10/15 10:32:57;;;;;;;4.28;2.10;;;7.70;99.90;;;;;;5071054;28;20047;-77
2023/10/15 10:35:26;;;;;;;4.15;2.10;;;7.70;99.90;;;;;;5071286;28;20122;-77
2023/10/15 10:38:11;;;;;;;4.47;1.50;;;7.70;99.90;;;;;;5070555;28;20152;-78
2023/10/15 10:40:53;;;;;;;5.20;2.00;;;7.80;99.90;;;;;;5069997;28;20071;-78
2023/10/15 10:43:27;;;;;;;3.47;1.90;;;7.80;99.90;;;;;;5070537;28;20040;-77
2023/10/15 10:45:55;;;;;;;4.88;2.03;;;7.90;99.90;;;;;;5070486;28;20134;-77
2023/10/15 10:48:25;;;;;;;6.78;2.38;;;7.90;99.90;;;;;;5070453;28;20024;-77
2023/10/15 10:51:19;;;;;;;5.22;1.95;;;8.00;99.90;;;;;;5069778;28;20127;-77
2023/10/15 10:54:15;;;;;;;5.72;2.30;;;8.00;99.90;;;;;;5069570;28;20056;-77
2023/10/15 10:56:41;;;;;;;5.45;1.92;;;8.10;99.90;;;;;;5039141;28;20032;-77
2023/10/15 10:59:14;;;;;;;4.57;1.90;;;8.20;99.90;;;;;;5070456;28;20133;-76
2023/10/15 11:01:46;;;;;;;5.38;2.00;;;8.20;99.90;;;;;;5070055;28;20032;-76
2023/10/15 11:04:15;;;;;;;2.17;1.95;;;8.30;99.90;;;;;;5070891;28;20035;-77
2023/10/15 11:06:45;;;;;;;6.47;2.20;;;8.30;99.90;;;;;;5069598;28;20108;-75
2023/10/15 11:09:21;;;;;;;4.30;2.05;;;8.40;99.90;;;;;;5070722;28;20090;-76
2023/10/15 11:11:55;;;;;;;3.60;1.50;;;8.40;99.90;;;;;;5069874;28;20128;-76
2023/10/15 11:14:27;;;;;;;4.25;1.60;;;8.50;99.90;;;;;;5070887;28;20104;-77
2023/10/15 11:16:57;;;;;;;4.78;1.58;;;8.50;99.90;;;;;;5070030;28;20107;-77
2023/10/15 11:19:25;;;;;;;2.47;1.50;;;8.50;99.90;;;;;;5070466;28;20082;-77
2023/10/15 11:21:52;;;;;;;3.63;1.42;;;8.60;99.90;;;;;;5069824;28;20471;-77
2023/10/15 11:24:19;;;;;;;5.70;2.13;;;8.60;99.90;;;;;;5070507;28;20111;-77
2023/10/15 11:26:46;;;;;;;7.13;1.70;;;8.80;99.90;;;;;;5069630;28;20032;-77
2023/10/15 11:29:14;;;;;;;4.40;1.40;;;8.80;99.90;;;;;;5070195;28;20025;-77
2023/10/15 11:31:44;;;;;;;3.50;1.48;;;8.80;99.90;;;;;;5069447;28;20372;-77
2023/10/15 11:34:22;;;;;;;4.45;1.38;;;8.80;99.90;;;;;;5070103;28;20025;-77
2023/10/15 11:36:49;;;;;;;5.85;1.75;;;9.00;99.90;;;;;;5069654;28;20138;-77
2023/10/15 11:39:19;;;;;;;7.25;1.23;;;9.00;99.90;;;;;;5073805;28;20104;-77
2023/10/15 11:41:52;;;;;;;5.65;1.10;;;9.10;99.90;;;;;;5055489;28;20487;-77
2023/10/15 11:44:25;;;;;;;4.43;1.75;;;9.10;99.90;;;;;;5074351;28;20617;-76
2023/10/15 11:46:55;;;;;;;3.65;1.17;;;9.10;99.90;;;;;;5072716;28;20078;-76
2023/10/15 11:49:22;;;;;;;6.13;1.20;;;9.00;99.90;;;;;;5073300;28;20082;-76
2023/10/15 11:51:49;;;;;;;2.33;0.93;;;9.00;99.90;;;;;;5072747;28;20037;-77
2023/10/15 11:54:16;;;;;;;2.90;1.00;;;9.00;99.90;;;;;;5073067;28;20048;-76
2023/10/15 11:56:47;;;;;;;3.42;0.85;;;9.10;99.90;;;;;;5072971;28;20060;-76
2023/10/15 11:59:13;;;;;;;2.70;0.93;;;9.10;99.90;;;;;;5073642;28;20032;-76
2023/10/15 12:01:39;;;;;;;4.32;0.95;;;9.10;99.90;;;;;;5072936;28;20363;-77
2023/10/15 12:04:07;;;;;;;5.32;1.35;;;9.10;99.90;;;;;;5073227;28;20023;-76
2023/10/15 12:06:33;;;;;;;3.60;0.90;;;9.20;99.90;;;;;;5072614;28;20031;-83
2023/10/15 12:08:59;;;;;;;5.03;1.55;;;9.20;99.90;;;;;;5073300;28;20108;-78
2023/10/15 12:11:25;;;;;;;3.50;1.15;;;9.20;99.90;;;;;;5073448;28;20173;-79
2023/10/15 12:13:52;;;;;;;3.35;1.13;;;9.20;99.90;;;;;;5073611;28;20025;-79
2023/10/15 12:16:17;;;;;;;2.00;1.15;;;9.30;99.90;;;;;;5055261;28;20078;-79
2023/10/15 12:18:43;;;;;;;1.50;0.85;;;9.30;99.90;;;;;;5054719;28;20040;-78
2023/10/15 12:21:09;;;;;;;4.47;1.30;;;9.30;99.90;;;;;;5072467;28;20388;-79
2023/10/15 12:23:35;;;;;;;2.58;0.90;;;9.40;99.90;;;;;;5072022;28;20051;-82
2023/10/15 12:26:01;;;;;;;5.88;1.08;;;9.40;99.90;;;;;;5072844;28;20222;-80
2023/10/15 12:28:27;;;;;;;2.53;0.98;;;9.40;99.90;;;;;;5072681;28;20446;-80
2023/10/15 12:30:54;;;;;;;1.15;0.70;;;9.40;99.90;;;;;;5072126;28;20017;-81
2023/10/15 12:33:21;;;;;;;3.97;0.93;;;9.40;99.90;;;;;;5072711;28;20028;-80
2023/10/15 12:35:50;;;;;;;2.80;0.82;;;9.50;99.90;;;;;;5072262;28;20028;-79
2023/10/15 12:38:26;;;;;;;3.17;1.00;;;9.50;99.90;;;;;;5072032;28;20555;-80
2023/10/15 12:40:52;;;;;;;3.75;1.15;;;9.40;99.90;;;;;;5053943;28;20032;-79
2023/10/15 12:43:18;;;;;;;3.95;1.15;;;9.50;99.90;;;;;;5072187;28;20094;-79
2023/10/15 12:45:44;;;;;;;3.72;1.08;;;9.60;99.90;;;;;;5071864;28;20029;-79
2023/10/15 12:48:10;;;;;;;3.03;1.05;;;9.70;99.90;;;;;;5072263;28;20112;-79
2023/10/15 12:50:36;;;;;;;1.27;1.00;;;9.70;99.90;;;;;;5071535;28;20040;-82
2023/10/15 12:53:03;;;;;;;2.90;1.50;;;9.70;99.90;;;;;;5071982;28;20037;-80
2023/10/15 12:55:29;;;;;;;3.85;1.35;;;9.80;99.90;;;;;;5071880;28;20489;-79
2023/10/15 12:57:55;;;;;;;2.28;0.90;;;9.80;99.90;;;;;;5071936;28;20660;-79
2023/10/15 13:00:21;;;;;;;2.30;1.15;;;9.80;99.90;;;;;;5072120;28;20107;-79
2023/10/15 13:02:53;;;;;;;1.95;0.90;;;9.80;99.90;;;;;;5071087;28;20043;-80
2023/10/15 13:05:20;;;;;;;2.77;0.80;;;9.80;99.90;;;;;;5053878;28;20020;-80
2023/10/15 13:07:47;;;;;;;2.50;1.05;;;9.80;99.90;;;;;;5070773;28;20052;-80
2023/10/15 13:10:13;;;;;;;3.05;0.90;;;9.80;99.90;;;;;;5071978;28;20434;-79
2023/10/15 13:12:42;;;;;;;1.75;1.00;;;9.90;99.90;;;;;;5071288;28;20028;-80
2023/10/15 13:15:08;;;;;;;3.97;1.17;;;9.80;99.90;;;;;;5071959;28;20036;-80
2023/10/15 13:17:34;;;;;;;1.80;0.80;;;9.80;99.90;;;;;;5071816;28;20021;-80
2023/10/15 13:20:05;;;;;;;1.30;0.73;;;9.90;99.90;;;;;;5070925;28;20060;-80
2023/10/15 13:22:32;;;;;;;5.90;1.75;;;9.90;99.90;;;;;;5071664;28;20123;-81